sensor_id;sensor_type;location;lat;lon;timestamp;temperature;humidity
36458;DHT22;22480;50.546;12.292;2023-08-21T00:01:09;19.80;99.90
36458;DHT22;22480;50.546;12.292;2023-08-21T00:03:35;19.70;99.90
36458;DHT22;22480;50.546;12.292;2023-08-21T00:06:01;19.70;99.90
36458;DHT22;22480;50.546;12.292;2023-08-21T00:08:26;19.70;99.90
36458;DHT22;22480;50.546;12.292;2023-08-21T00:10:52;19.70;99.90
36458;DHT22;22480;50.546;12.292;2023-08-21T00:13:18;19.80;99.90
36458;DHT22;22480;50.546;12.292;2023-08-21T00:15:44;19.80;99.90
36458;DHT22;22480;50.546;12.292;2023-08-21T00:18:10;19.80;99.90
36458;DHT22;22480;50.546;12.292;2023-08-21T00:20:35;19.80;99.90
36458;DHT22;22480;50.546;12.292;2023-08-21T00:23:01;19.70;99.90
36458;DHT22;22480;50.546;12.292;2023-08-21T00:25:27;19.60;99.90
36458;DHT22;22480;50.546;12.292;2023-08-21T00:27:53;19.60;99.90
36458;DHT22;22480;50.546;12.292;2023-08-21T00:30:19;19.70;99.90
36458;DHT22;22480;50.546;12.292;2023-08-21T00:32:45;19.70;99.90
36458;DHT22;22480;50.546;12.292;2023-08-21T00:35:10;19.60;99.90
36458;DHT22;22480;50.546;12.292;2023-08-21T00:37:36;19.60;99.90
36458;DHT22;22480;50.546;12.292;2023-08-21T00:40:02;19.60;99.90
36458;DHT22;22480;50.546;12.292;2023-08-21T00:42:28;19.60;99.90
36458;DHT22;22480;50.546;12.292;2023-08-21T00:44:54;19.50;99.90
36458;DHT22;22480;50.546;12.292;2023-08-21T00:47:19;19.50;99.90
36458;DHT22;22480;50.546;12.292;2023-08-21T00:49:46;19.40;99.90
36458;DHT22;22480;50.546;12.292;2023-08-21T00:52:12;19.40;99.90
36458;DHT22;22480;50.546;12.292;2023-08-21T00:54:40;19.40;99.90
36458;DHT22;22480;50.546;12.292;2023-08-21T00:57:06;19.40;99.90
36458;DHT22;22480;50.546;12.292;2023-08-21T00:59:32;19.30;99.90
36458;DHT22;22480;50.546;12.292;2023-08-21T01:01:57;19.20;99.90
36458;DHT22;22480;50.546;12.292;2023-08-21T01:04:23;19.20;99.90
36458;DHT22;22480;50.546;12.292;2023-08-21T01:06:49;19.20;99.90
36458;DHT22;22480;50.546;12.292;2023-08-21T01:09:27;19.20;99.90
36458;DHT22;22480;50.546;12.292;2023-08-21T01:15:00;19.10;99.90
36458;DHT22;22480;50.546;12.292;2023-08-21T01:17:29;19.00;99.90
36458;DHT22;22480;50.546;12.292;2023-08-21T01:19:56;19.00;99.90
36458;DHT22;22480;50.546;12.292;2023-08-21T01:22:44;19.00;99.90
36458;DHT22;22480;50.546;12.292;2023-08-21T01:25:12;18.90;99.90
36458;DHT22;22480;50.546;12.292;2023-08-21T01:27:46;18.90;99.90
36458;DHT22;22480;50.546;12.292;2023-08-21T01:30:13;19.00;99.90
36458;DHT22;22480;50.546;12.292;2023-08-21T01:33:05;19.10;99.90
36458;DHT22;22480;50.546;12.292;2023-08-21T01:35:33;18.90;99.90
36458;DHT22;22480;50.546;12.292;2023-08-21T01:38:02;18.80;99.90
36458;DHT22;22480;50.546;12.292;2023-08-21T01:40:28;18.70;99.90
36458;DHT22;22480;50.546;12.292;2023-08-21T01:42:53;18.70;99.90
36458;DHT22;22480;50.546;12.292;2023-08-21T01:45:20;18.70;99.90
36458;DHT22;22480;50.546;12.292;2023-08-21T01:47:45;18.60;99.90
36458;DHT22;22480;50.546;12.292;2023-08-21T01:50:11;18.50;99.90
36458;DHT22;22480;50.546;12.292;2023-08-21T01:52:37;18.50;99.90
36458;DHT22;22480;50.546;12.292;2023-08-21T01:55:04;18.50;99.90
36458;DHT22;22480;50.546;12.292;2023-08-21T01:57:30;18.40;99.90
36458;DHT22;22480;50.546;12.292;2023-08-21T01:59:55;18.30;99.90
36458;DHT22;22480;50.546;12.292;2023-08-21T02:02:21;18.30;99.90
36458;DHT22;22480;50.546;12.292;2023-08-21T02:04:47;18.30;99.90
36458;DHT22;22480;50.546;12.292;2023-08-21T02:07:12;18.30;99.90
36458;DHT22;22480;50.546;12.292;2023-08-21T02:09:38;18.30;99.90
36458;DHT22;22480;50.546;12.292;2023-08-21T02:12:04;18.30;99.90
36458;DHT22;22480;50.546;12.292;2023-08-21T02:14:30;18.30;99.90
36458;DHT22;22480;50.546;12.292;2023-08-21T02:16:56;18.30;99.90
36458;DHT22;22480;50.546;12.292;2023-08-21T02:19:22;18.20;99.90
36458;DHT22;22480;50.546;12.292;2023-08-21T02:21:48;18.20;99.90
36458;DHT22;22480;50.546;12.292;2023-08-21T02:24:13;18.20;99.90
36458;DHT22;22480;50.546;12.292;2023-08-21T02:26:39;18.10;99.90
36458;DHT22;22480;50.546;12.292;2023-08-21T02:29:05;18.10;99.90
36458;DHT22;22480;50.546;12.292;2023-08-21T02:31:32;18.20;99.90
36458;DHT22;22480;50.546;12.292;2023-08-21T02:33:58;18.20;99.90
36458;DHT22;22480;50.546;12.292;2023-08-21T02:36:23;18.20;99.90
36458;DHT22;22480;50.546;12.292;2023-08-21T02:38:50;18.20;99.90
36458;DHT22;22480;50.546;12.292;2023-08-21T02:41:16;18.20;99.90
36458;DHT22;22480;50.546;12.292;2023-08-21T02:43:44;18.30;99.90
36458;DHT22;22480;50.546;12.292;2023-08-21T02:46:09;18.30;99.90
36458;DHT22;22480;50.546;12.292;2023-08-21T02:48:35;18.40;99.90
36458;DHT22;22480;50.546;12.292;2023-08-21T02:51:01;18.40;99.90
36458;DHT22;22480;50.546;12.292;2023-08-21T02:53:28;18.30;99.90
36458;DHT22;22480;50.546;12.292;2023-08-21T02:55:54;18.30;99.90
36458;DHT22;22480;50.546;12.292;2023-08-21T02:58:20;18.30;99.90
36458;DHT22;22480;50.546;12.292;2023-08-21T03:00:45;18.30;99.90
36458;DHT22;22480;50.546;12.292;2023-08-21T03:03:11;18.30;99.90
36458;DHT22;22480;50.546;12.292;2023-08-21T03:05:37;18.30;99.90
36458;DHT22;22480;50.546;12.292;2023-08-21T03:08:03;18.30;99.90
36458;DHT22;22480;50.546;12.292;2023-08-21T03:10:28;18.20;99.90
36458;DHT22;22480;50.546;12.292;2023-08-21T03:13:00;18.10;99.90
36458;DHT22;22480;50.546;12.292;2023-08-21T03:15:26;18.30;99.90
36458;DHT22;22480;50.546;12.292;2023-08-21T03:17:51;18.30;99.90
36458;DHT22;22480;50.546;12.292;2023-08-21T03:20:17;18.40;99.90
36458;DHT22;22480;50.546;12.292;2023-08-21T03:22:44;18.40;99.90
36458;DHT22;22480;50.546;12.292;2023-08-21T03:25:10;18.30;99.90
36458;DHT22;22480;50.546;12.292;2023-08-21T03:27:36;18.30;99.90
36458;DHT22;22480;50.546;12.292;2023-08-21T03:30:06;18.20;99.90
36458;DHT22;22480;50.546;12.292;2023-08-21T03:32:33;18.20;99.90
36458;DHT22;22480;50.546;12.292;2023-08-21T03:34:59;18.10;99.90
36458;DHT22;22480;50.546;12.292;2023-08-21T03:37:25;18.10;99.90
36458;DHT22;22480;50.546;12.292;2023-08-21T03:39:50;18.00;99.90
36458;DHT22;22480;50.546;12.292;2023-08-21T03:42:16;17.90;99.90
36458;DHT22;22480;50.546;12.292;2023-08-21T03:44:42;17.80;99.90
36458;DHT22;22480;50.546;12.292;2023-08-21T03:47:08;17.80;99.90
36458;DHT22;22480;50.546;12.292;2023-08-21T03:49:42;17.80;99.90
36458;DHT22;22480;50.546;12.292;2023-08-21T03:52:08;17.80;99.90
36458;DHT22;22480;50.546;12.292;2023-08-21T03:54:34;17.70;99.90
36458;DHT22;22480;50.546;12.292;2023-08-21T03:57:00;17.70;99.90
36458;DHT22;22480;50.546;12.292;2023-08-21T03:59:26;17.60;99.90
36458;DHT22;22480;50.546;12.292;2023-08-21T04:01:55;17.60;99.90
36458;DHT22;22480;50.546;12.292;2023-08-21T04:04:21;17.60;99.90
36458;DHT22;22480;50.546;12.292;2023-08-21T04:06:47;17.70;99.90
36458;DHT22;22480;50.546;12.292;2023-08-21T04:09:13;17.70;99.90
36458;DHT22;22480;50.546;12.292;2023-08-21T04:11:38;17.70;99.90
36458;DHT22;22480;50.546;12.292;2023-08-21T04:14:04;17.70;99.90
36458;DHT22;22480;50.546;12.292;2023-08-21T04:16:30;17.60;99.90
36458;DHT22;22480;50.546;12.292;2023-08-21T04:18:57;17.60;99.90
36458;DHT22;22480;50.546;12.292;2023-08-21T04:21:23;17.60;99.90
36458;DHT22;22480;50.546;12.292;2023-08-21T04:23:48;17.60;99.90
36458;DHT22;22480;50.546;12.292;2023-08-21T04:26:14;17.60;99.90
36458;DHT22;22480;50.546;12.292;2023-08-21T04:28:40;17.60;99.90
36458;DHT22;22480;50.546;12.292;2023-08-21T04:31:07;17.60;99.90
36458;DHT22;22480;50.546;12.292;2023-08-21T04:33:34;17.70;99.90
36458;DHT22;22480;50.546;12.292;2023-08-21T04:36:01;17.70;99.90
36458;DHT22;22480;50.546;12.292;2023-08-21T04:38:27;17.70;99.90
36458;DHT22;22480;50.546;12.292;2023-08-21T04:40:54;17.70;99.90
36458;DHT22;22480;50.546;12.292;2023-08-21T04:43:20;17.80;99.90
36458;DHT22;22480;50.546;12.292;2023-08-21T04:45:52;17.80;99.90
36458;DHT22;22480;50.546;12.292;2023-08-21T04:48:23;17.80;99.90
36458;DHT22;22480;50.546;12.292;2023-08-21T04:50:49;18.00;99.90
36458;DHT22;22480;50.546;12.292;2023-08-21T04:53:15;18.00;99.90
36458;DHT22;22480;50.546;12.292;2023-08-21T04:55:41;18.20;99.90
36458;DHT22;22480;50.546;12.292;2023-08-21T04:58:08;18.20;99.90
36458;DHT22;22480;50.546;12.292;2023-08-21T05:00:35;18.30;99.90
36458;DHT22;22480;50.546;12.292;2023-08-21T05:03:01;18.30;99.90
36458;DHT22;22480;50.546;12.292;2023-08-21T05:05:26;18.40;99.90
36458;DHT22;22480;50.546;12.292;2023-08-21T05:07:53;18.40;99.90
36458;DHT22;22480;50.546;12.292;2023-08-21T05:10:19;18.50;99.90
36458;DHT22;22480;50.546;12.292;2023-08-21T05:12:45;18.60;99.90
36458;DHT22;22480;50.546;12.292;2023-08-21T05:15:11;18.70;99.90
36458;DHT22;22480;50.546;12.292;2023-08-21T05:17:37;18.70;99.90
36458;DHT22;22480;50.546;12.292;2023-08-21T05:20:04;18.80;99.90
36458;DHT22;22480;50.546;12.292;2023-08-21T05:22:30;18.90;99.90
36458;DHT22;22480;50.546;12.292;2023-08-21T05:24:56;19.10;99.90
36458;DHT22;22480;50.546;12.292;2023-08-21T05:27:22;19.40;99.90
36458;DHT22;22480;50.546;12.292;2023-08-21T05:29:48;19.70;99.90
36458;DHT22;22480;50.546;12.292;2023-08-21T05:32:16;20.10;99.90
36458;DHT22;22480;50.546;12.292;2023-08-21T05:34:44;20.80;99.90
36458;DHT22;22480;50.546;12.292;2023-08-21T05:37:11;20.90;99.90
36458;DHT22;22480;50.546;12.292;2023-08-21T05:39:36;21.00;99.90
36458;DHT22;22480;50.546;12.292;2023-08-21T05:42:02;21.20;99.90
36458;DHT22;22480;50.546;12.292;2023-08-21T05:44:28;21.20;99.90
36458;DHT22;22480;50.546;12.292;2023-08-21T05:46:54;21.30;99.90
36458;DHT22;22480;50.546;12.292;2023-08-21T05:49:19;21.60;99.90
36458;DHT22;22480;50.546;12.292;2023-08-21T05:51:45;21.70;99.90
36458;DHT22;22480;50.546;12.292;2023-08-21T05:54:11;22.20;99.90
36458;DHT22;22480;50.546;12.292;2023-08-21T05:56:39;23.00;99.90
36458;DHT22;22480;50.546;12.292;2023-08-21T05:59:05;23.80;99.90
36458;DHT22;22480;50.546;12.292;2023-08-21T06:01:31;24.80;99.90
36458;DHT22;22480;50.546;12.292;2023-08-21T06:03:57;25.70;99.90
36458;DHT22;22480;50.546;12.292;2023-08-21T06:06:43;26.10;99.90
36458;DHT22;22480;50.546;12.292;2023-08-21T06:09:09;26.50;99.90
36458;DHT22;22480;50.546;12.292;2023-08-21T06:11:35;26.80;99.90
36458;DHT22;22480;50.546;12.292;2023-08-21T06:14:01;27.10;99.90
36458;DHT22;22480;50.546;12.292;2023-08-21T06:16:26;27.60;99.90
36458;DHT22;22480;50.546;12.292;2023-08-21T06:18:52;28.30;99.90
36458;DHT22;22480;50.546;12.292;2023-08-21T06:21:18;28.90;99.90
36458;DHT22;22480;50.546;12.292;2023-08-21T06:23:44;29.20;99.90
36458;DHT22;22480;50.546;12.292;2023-08-21T06:26:09;29.50;99.90
36458;DHT22;22480;50.546;12.292;2023-08-21T06:28:35;29.60;99.90
36458;DHT22;22480;50.546;12.292;2023-08-21T06:31:01;29.70;99.90
36458;DHT22;22480;50.546;12.292;2023-08-21T06:33:31;29.50;99.90
36458;DHT22;22480;50.546;12.292;2023-08-21T06:35:57;29.50;99.90
36458;DHT22;22480;50.546;12.292;2023-08-21T06:38:23;30.00;99.90
36458;DHT22;22480;50.546;12.292;2023-08-21T06:40:48;30.60;99.90
36458;DHT22;22480;50.546;12.292;2023-08-21T06:43:14;30.90;99.90
36458;DHT22;22480;50.546;12.292;2023-08-21T06:45:45;31.20;99.90
36458;DHT22;22480;50.546;12.292;2023-08-21T06:48:11;31.70;99.90
36458;DHT22;22480;50.546;12.292;2023-08-21T06:50:37;32.10;99.90
36458;DHT22;22480;50.546;12.292;2023-08-21T06:53:03;32.20;99.90
36458;DHT22;22480;50.546;12.292;2023-08-21T06:55:29;32.70;99.90
36458;DHT22;22480;50.546;12.292;2023-08-21T06:57:55;32.80;99.90
36458;DHT22;22480;50.546;12.292;2023-08-21T07:00:20;32.50;99.30
36458;DHT22;22480;50.546;12.292;2023-08-21T07:02:46;32.00;99.90
36458;DHT22;22480;50.546;12.292;2023-08-21T07:05:12;31.70;99.90
36458;DHT22;22480;50.546;12.292;2023-08-21T07:07:37;31.80;99.90
36458;DHT22;22480;50.546;12.292;2023-08-21T07:10:03;31.50;99.90
36458;DHT22;22480;50.546;12.292;2023-08-21T07:12:30;31.30;99.90
36458;DHT22;22480;50.546;12.292;2023-08-21T07:14:56;30.90;99.90
36458;DHT22;22480;50.546;12.292;2023-08-21T07:17:21;30.60;99.90
36458;DHT22;22480;50.546;12.292;2023-08-21T07:19:47;30.20;99.90
36458;DHT22;22480;50.546;12.292;2023-08-21T07:22:14;29.90;99.90
36458;DHT22;22480;50.546;12.292;2023-08-21T07:24:40;29.60;99.90
36458;DHT22;22480;50.546;12.292;2023-08-21T07:27:06;29.40;99.90
36458;DHT22;22480;50.546;12.292;2023-08-21T07:29:31;29.20;99.90
36458;DHT22;22480;50.546;12.292;2023-08-21T07:31:57;28.70;99.90
36458;DHT22;22480;50.546;12.292;2023-08-21T07:34:23;28.80;99.90
36458;DHT22;22480;50.546;12.292;2023-08-21T07:36:48;29.40;99.90
36458;DHT22;22480;50.546;12.292;2023-08-21T07:39:14;30.10;99.90
36458;DHT22;22480;50.546;12.292;2023-08-21T07:41:40;30.70;99.90
36458;DHT22;22480;50.546;12.292;2023-08-21T07:44:06;31.20;99.90
36458;DHT22;22480;50.546;12.292;2023-08-21T07:46:31;31.50;99.90
36458;DHT22;22480;50.546;12.292;2023-08-21T07:48:57;31.90;99.00
36458;DHT22;22480;50.546;12.292;2023-08-21T07:51:23;32.20;96.80
36458;DHT22;22480;50.546;12.292;2023-08-21T07:53:48;32.30;96.20
36458;DHT22;22480;50.546;12.292;2023-08-21T07:56:14;32.60;92.80
36458;DHT22;22480;50.546;12.292;2023-08-21T07:58:40;32.50;94.20
36458;DHT22;22480;50.546;12.292;2023-08-21T08:01:05;32.70;92.60
36458;DHT22;22480;50.546;12.292;2023-08-21T08:03:31;32.60;90.80
36458;DHT22;22480;50.546;12.292;2023-08-21T08:05:57;32.80;92.40
36458;DHT22;22480;50.546;12.292;2023-08-21T08:08:23;33.20;90.00
36458;DHT22;22480;50.546;12.292;2023-08-21T08:10:49;33.10;89.30
36458;DHT22;22480;50.546;12.292;2023-08-21T08:13:15;33.10;88.20
36458;DHT22;22480;50.546;12.292;2023-08-21T08:15:41;33.20;85.80
36458;DHT22;22480;50.546;12.292;2023-08-21T08:18:11;33.20;83.40
36458;DHT22;22480;50.546;12.292;2023-08-21T08:20:37;33.10;84.40
36458;DHT22;22480;50.546;12.292;2023-08-21T08:23:03;32.80;83.80
36458;DHT22;22480;50.546;12.292;2023-08-21T08:25:29;32.90;81.50
36458;DHT22;22480;50.546;12.292;2023-08-21T08:27:54;32.60;82.00
36458;DHT22;22480;50.546;12.292;2023-08-21T08:30:20;32.10;84.60
36458;DHT22;22480;50.546;12.292;2023-08-21T08:32:46;32.00;86.30
36458;DHT22;22480;50.546;12.292;2023-08-21T08:35:15;32.00;85.80
36458;DHT22;22480;50.546;12.292;2023-08-21T08:37:41;32.30;85.80
36458;DHT22;22480;50.546;12.292;2023-08-21T08:40:08;32.50;85.60
36458;DHT22;22480;50.546;12.292;2023-08-21T08:42:34;32.90;83.50
36458;DHT22;22480;50.546;12.292;2023-08-21T08:45:02;33.30;80.30
36458;DHT22;22480;50.546;12.292;2023-08-21T08:47:33;33.30;79.60
36458;DHT22;22480;50.546;12.292;2023-08-21T08:50:04;33.10;80.30
36458;DHT22;22480;50.546;12.292;2023-08-21T08:52:35;33.40;79.50
36458;DHT22;22480;50.546;12.292;2023-08-21T08:55:01;33.70;77.00
36458;DHT22;22480;50.546;12.292;2023-08-21T08:57:28;33.70;76.10
36458;DHT22;22480;50.546;12.292;2023-08-21T08:59:53;33.70;76.40
36458;DHT22;22480;50.546;12.292;2023-08-21T09:02:19;33.50;76.40
36458;DHT22;22480;50.546;12.292;2023-08-21T09:04:45;33.10;78.50
36458;DHT22;22480;50.546;12.292;2023-08-21T09:07:11;33.50;76.00
36458;DHT22;22480;50.546;12.292;2023-08-21T09:09:41;33.70;74.20
36458;DHT22;22480;50.546;12.292;2023-08-21T09:12:11;33.70;75.10
36458;DHT22;22480;50.546;12.292;2023-08-21T09:14:42;33.60;74.40
36458;DHT22;22480;50.546;12.292;2023-08-21T09:17:08;33.30;75.60
36458;DHT22;22480;50.546;12.292;2023-08-21T09:19:34;33.50;74.60
36458;DHT22;22480;50.546;12.292;2023-08-21T09:22:14;33.70;74.60
36458;DHT22;22480;50.546;12.292;2023-08-21T09:24:40;33.60;76.20
36458;DHT22;22480;50.546;12.292;2023-08-21T09:27:24;33.90;75.10
36458;DHT22;22480;50.546;12.292;2023-08-21T09:29:50;34.10;73.90
36458;DHT22;22480;50.546;12.292;2023-08-21T09:32:16;34.60;73.60
36458;DHT22;22480;50.546;12.292;2023-08-21T09:34:41;35.00;72.40
36458;DHT22;22480;50.546;12.292;2023-08-21T09:37:08;35.30;69.10
36458;DHT22;22480;50.546;12.292;2023-08-21T09:39:36;35.40;69.50
36458;DHT22;22480;50.546;12.292;2023-08-21T09:42:06;35.60;68.10
36458;DHT22;22480;50.546;12.292;2023-08-21T09:44:37;35.20;69.00
36458;DHT22;22480;50.546;12.292;2023-08-21T09:47:03;35.30;69.50
36458;DHT22;22480;50.546;12.292;2023-08-21T09:49:29;35.70;67.30
36458;DHT22;22480;50.546;12.292;2023-08-21T09:51:57;35.80;67.20
36458;DHT22;22480;50.546;12.292;2023-08-21T09:54:23;36.30;66.70
36458;DHT22;22480;50.546;12.292;2023-08-21T09:56:50;36.70;64.70
36458;DHT22;22480;50.546;12.292;2023-08-21T09:59:17;36.70;64.00
36458;DHT22;22480;50.546;12.292;2023-08-21T10:01:44;36.50;64.20
36458;DHT22;22480;50.546;12.292;2023-08-21T10:04:12;36.20;65.20
36458;DHT22;22480;50.546;12.292;2023-08-21T10:06:38;36.50;64.20
36458;DHT22;22480;50.546;12.292;2023-08-21T10:09:04;36.60;65.10
36458;DHT22;22480;50.546;12.292;2023-08-21T10:11:30;36.70;63.40
36458;DHT22;22480;50.546;12.292;2023-08-21T10:13:57;37.00;62.80
36458;DHT22;22480;50.546;12.292;2023-08-21T10:16:23;37.50;61.70
36458;DHT22;22480;50.546;12.292;2023-08-21T10:18:49;37.70;60.60
36458;DHT22;22480;50.546;12.292;2023-08-21T10:21:20;37.60;62.60
36458;DHT22;22480;50.546;12.292;2023-08-21T10:23:51;37.20;60.70
36458;DHT22;22480;50.546;12.292;2023-08-21T10:26:21;36.30;63.70
36458;DHT22;22480;50.546;12.292;2023-08-21T10:28:53;36.20;63.00
36458;DHT22;22480;50.546;12.292;2023-08-21T10:31:38;36.90;62.30
36458;DHT22;22480;50.546;12.292;2023-08-21T10:34:09;37.10;61.50
36458;DHT22;22480;50.546;12.292;2023-08-21T10:39:23;37.10;62.20
36458;DHT22;22480;50.546;12.292;2023-08-21T10:42:16;36.60;62.00
36458;DHT22;22480;50.546;12.292;2023-08-21T10:44:52;37.20;61.90
36458;DHT22;22480;50.546;12.292;2023-08-21T10:47:21;37.80;59.80
36458;DHT22;22480;50.546;12.292;2023-08-21T10:49:54;37.90;58.80
36458;DHT22;22480;50.546;12.292;2023-08-21T10:52:26;38.00;58.20
36458;DHT22;22480;50.546;12.292;2023-08-21T10:54:54;37.70;57.00
36458;DHT22;22480;50.546;12.292;2023-08-21T10:57:21;37.80;58.80
36458;DHT22;22480;50.546;12.292;2023-08-21T11:02:17;38.60;57.00
36458;DHT22;22480;50.546;12.292;2023-08-21T11:04:43;38.60;55.80
36458;DHT22;22480;50.546;12.292;2023-08-21T11:07:10;38.30;56.90
36458;DHT22;22480;50.546;12.292;2023-08-21T11:09:36;38.70;57.80
36458;DHT22;22480;50.546;12.292;2023-08-21T11:12:10;38.90;56.10
36458;DHT22;22480;50.546;12.292;2023-08-21T11:14:37;38.80;56.30
36458;DHT22;22480;50.546;12.292;2023-08-21T11:17:03;38.60;56.30
36458;DHT22;22480;50.546;12.292;2023-08-21T11:19:33;38.40;57.10
36458;DHT22;22480;50.546;12.292;2023-08-21T11:21:59;38.80;56.20
36458;DHT22;22480;50.546;12.292;2023-08-21T11:27:04;39.00;55.30
36458;DHT22;22480;50.546;12.292;2023-08-21T11:29:36;39.30;55.50
36458;DHT22;22480;50.546;12.292;2023-08-21T11:32:03;38.50;54.70
36458;DHT22;22480;50.546;12.292;2023-08-21T11:34:29;38.30;56.30
36458;DHT22;22480;50.546;12.292;2023-08-21T11:36:57;39.00;54.60
36458;DHT22;22480;50.546;12.292;2023-08-21T11:39:23;38.90;55.30
36458;DHT22;22480;50.546;12.292;2023-08-21T11:41:56;39.20;53.10
36458;DHT22;22480;50.546;12.292;2023-08-21T11:44:22;38.40;54.40
36458;DHT22;22480;50.546;12.292;2023-08-21T11:46:51;39.00;54.80
36458;DHT22;22480;50.546;12.292;2023-08-21T11:49:18;39.60;54.00
36458;DHT22;22480;50.546;12.292;2023-08-21T11:51:47;39.80;53.40
36458;DHT22;22480;50.546;12.292;2023-08-21T11:54:13;39.50;54.70
36458;DHT22;22480;50.546;12.292;2023-08-21T11:56:39;39.70;54.60
36458;DHT22;22480;50.546;12.292;2023-08-21T11:59:08;40.00;51.70
36458;DHT22;22480;50.546;12.292;2023-08-21T12:01:33;40.20;51.60
36458;DHT22;22480;50.546;12.292;2023-08-21T12:03:59;40.40;50.70
36458;DHT22;22480;50.546;12.292;2023-08-21T12:06:25;40.00;52.10
36458;DHT22;22480;50.546;12.292;2023-08-21T12:08:52;40.40;53.50
36458;DHT22;22480;50.546;12.292;2023-08-21T12:11:18;40.90;50.00
36458;DHT22;22480;50.546;12.292;2023-08-21T12:13:44;41.00;50.10
36458;DHT22;22480;50.546;12.292;2023-08-21T12:16:09;40.90;49.60
36458;DHT22;22480;50.546;12.292;2023-08-21T12:18:35;40.40;50.30
36458;DHT22;22480;50.546;12.292;2023-08-21T12:21:01;39.90;50.80
36458;DHT22;22480;50.546;12.292;2023-08-21T12:23:26;39.60;51.50
36458;DHT22;22480;50.546;12.292;2023-08-21T12:25:52;39.90;53.30
36458;DHT22;22480;50.546;12.292;2023-08-21T12:28:18;40.00;52.60
36458;DHT22;22480;50.546;12.292;2023-08-21T12:30:44;40.00;52.80
36458;DHT22;22480;50.546;12.292;2023-08-21T12:33:09;40.00;54.60
36458;DHT22;22480;50.546;12.292;2023-08-21T12:35:35;40.40;51.60
36458;DHT22;22480;50.546;12.292;2023-08-21T12:38:10;40.90;49.90
36458;DHT22;22480;50.546;12.292;2023-08-21T12:40:38;41.20;49.90
36458;DHT22;22480;50.546;12.292;2023-08-21T12:43:04;40.70;48.10
36458;DHT22;22480;50.546;12.292;2023-08-21T12:45:30;40.40;50.50
36458;DHT22;22480;50.546;12.292;2023-08-21T12:47:55;40.40;50.60
36458;DHT22;22480;50.546;12.292;2023-08-21T12:50:21;39.80;50.10
36458;DHT22;22480;50.546;12.292;2023-08-21T12:52:47;40.10;49.50
36458;DHT22;22480;50.546;12.292;2023-08-21T12:55:13;40.60;51.20
36458;DHT22;22480;50.546;12.292;2023-08-21T12:57:39;40.80;49.40
36458;DHT22;22480;50.546;12.292;2023-08-21T13:00:05;40.50;49.00
36458;DHT22;22480;50.546;12.292;2023-08-21T13:02:31;41.00;49.50
36458;DHT22;22480;50.546;12.292;2023-08-21T13:04:57;41.10;48.80
36458;DHT22;22480;50.546;12.292;2023-08-21T13:07:22;41.00;50.20
36458;DHT22;22480;50.546;12.292;2023-08-21T13:09:48;40.60;50.80
36458;DHT22;22480;50.546;12.292;2023-08-21T13:12:14;40.30;50.80
36458;DHT22;22480;50.546;12.292;2023-08-21T13:14:40;40.00;51.80
36458;DHT22;22480;50.546;12.292;2023-08-21T13:17:06;39.10;51.30
36458;DHT22;22480;50.546;12.292;2023-08-21T13:19:32;38.50;52.20
36458;DHT22;22480;50.546;12.292;2023-08-21T13:21:58;37.90;53.80
36458;DHT22;22480;50.546;12.292;2023-08-21T13:24:23;37.30;54.00
36458;DHT22;22480;50.546;12.292;2023-08-21T13:26:49;36.80;55.50
36458;DHT22;22480;50.546;12.292;2023-08-21T13:29:15;36.30;57.40
36458;DHT22;22480;50.546;12.292;2023-08-21T13:31:40;36.50;54.50
36458;DHT22;22480;50.546;12.292;2023-08-21T13:34:06;37.30;53.20
36458;DHT22;22480;50.546;12.292;2023-08-21T13:36:32;37.40;53.00
36458;DHT22;22480;50.546;12.292;2023-08-21T13:38:57;37.10;54.90
36458;DHT22;22480;50.546;12.292;2023-08-21T13:41:23;36.50;55.80
36458;DHT22;22480;50.546;12.292;2023-08-21T13:43:49;36.10;56.30
36458;DHT22;22480;50.546;12.292;2023-08-21T13:46:14;35.70;56.10
36458;DHT22;22480;50.546;12.292;2023-08-21T13:48:40;35.30;58.20
36458;DHT22;22480;50.546;12.292;2023-08-21T13:51:06;34.90;57.60
36458;DHT22;22480;50.546;12.292;2023-08-21T13:53:32;34.50;58.10
36458;DHT22;22480;50.546;12.292;2023-08-21T13:55:58;34.20;57.70
36458;DHT22;22480;50.546;12.292;2023-08-21T13:58:23;34.40;58.20
36458;DHT22;22480;50.546;12.292;2023-08-21T14:00:49;34.60;57.60
36458;DHT22;22480;50.546;12.292;2023-08-21T14:03:15;34.30;58.20
36458;DHT22;22480;50.546;12.292;2023-08-21T14:05:41;34.00;58.20
36458;DHT22;22480;50.546;12.292;2023-08-21T14:08:06;33.40;58.80
36458;DHT22;22480;50.546;12.292;2023-08-21T14:10:32;32.90;59.90
36458;DHT22;22480;50.546;12.292;2023-08-21T14:12:58;32.60;62.10
36458;DHT22;22480;50.546;12.292;2023-08-21T14:15:24;32.30;64.00
36458;DHT22;22480;50.546;12.292;2023-08-21T14:17:49;31.90;64.60
36458;DHT22;22480;50.546;12.292;2023-08-21T14:20:15;31.80;64.80
36458;DHT22;22480;50.546;12.292;2023-08-21T14:22:41;32.00;65.30
36458;DHT22;22480;50.546;12.292;2023-08-21T14:25:07;32.10;66.40
36458;DHT22;22480;50.546;12.292;2023-08-21T14:27:34;32.10;65.20
36458;DHT22;22480;50.546;12.292;2023-08-21T14:30:00;31.90;65.10
36458;DHT22;22480;50.546;12.292;2023-08-21T14:32:26;31.50;65.90
36458;DHT22;22480;50.546;12.292;2023-08-21T14:34:52;31.30;66.10
36458;DHT22;22480;50.546;12.292;2023-08-21T14:37:20;31.30;66.10
36458;DHT22;22480;50.546;12.292;2023-08-21T14:39:47;31.30;66.10
36458;DHT22;22480;50.546;12.292;2023-08-21T14:42:13;31.30;66.70
36458;DHT22;22480;50.546;12.292;2023-08-21T14:44:39;31.80;65.30
36458;DHT22;22480;50.546;12.292;2023-08-21T14:47:05;32.10;65.10
36458;DHT22;22480;50.546;12.292;2023-08-21T14:49:31;32.40;66.10
36458;DHT22;22480;50.546;12.292;2023-08-21T14:51:58;33.20;64.50
36458;DHT22;22480;50.546;12.292;2023-08-21T14:54:24;34.50;60.30
36458;DHT22;22480;50.546;12.292;2023-08-21T14:56:50;35.30;60.20
36458;DHT22;22480;50.546;12.292;2023-08-21T14:59:16;36.00;56.80
36458;DHT22;22480;50.546;12.292;2023-08-21T15:01:42;36.30;57.00
36458;DHT22;22480;50.546;12.292;2023-08-21T15:04:08;36.80;55.70
36458;DHT22;22480;50.546;12.292;2023-08-21T15:06:37;37.40;54.20
36458;DHT22;22480;50.546;12.292;2023-08-21T15:09:03;37.50;53.60
36458;DHT22;22480;50.546;12.292;2023-08-21T15:11:30;36.80;55.20
36458;DHT22;22480;50.546;12.292;2023-08-21T15:13:56;36.10;56.20
36458;DHT22;22480;50.546;12.292;2023-08-21T15:16:21;35.30;56.50
36458;DHT22;22480;50.546;12.292;2023-08-21T15:18:47;34.70;57.80
36458;DHT22;22480;50.546;12.292;2023-08-21T15:21:17;34.10;59.00
36458;DHT22;22480;50.546;12.292;2023-08-21T15:23:42;33.50;60.70